Van Kinsbergen — PAKB — position and weather

sailwx.info

Track history (hours):
 
Tides and Currents Weather Stations Pressure Air Temp Water Temp Dewpoint Dewpoint Depression Visibility Wind Speed Wind Dir Waves Ship Positions

Van Kinsbergen

Last reported at 2016-Apr-29 03:23 UTC. Time now 2016-Apr-29 13:57 UTC.
Position N 52°58' E 004°47'.

Length 40 m; draft 3.1 m.

MMSI: 244736000.

Date/timePositionNaut miles runAvg speedWind from/ knotsBaromVisibWave heightAir tempDewpointWater temp
2016-Apr-29 03:23N 52°58' E 004°47'0 0.0
2016-Apr-28 20:23N 52°58' E 004°47'0 0.0
2016-Apr-28 08:23N 52°58' E 004°47'0 0.0
2016-Apr-28 06:17N 52°58' E 004°47'0 0.0
2016-Apr-27 05:32N 52°58' E 004°47'0 0.0
2016-Apr-26 20:32N 52°58' E 004°47'0 0.0
2016-Apr-26 08:20N 52°58' E 004°47'0 0.0
2016-Apr-26 06:05N 52°58' E 004°47'0 0.0
2016-Apr-26 04:29N 52°58' E 004°47'0 0.0
2016-Apr-25 23:20N 52°58' E 004°47'0 0.0
2016-Apr-25 20:17N 52°58' E 004°47'0 0.0
2016-Apr-25 08:11N 52°58' E 004°47'0 0.0
2016-Apr-24 17:32N 52°58' E 004°47'0 0.0
2016-Apr-24 14:32N 52°58' E 004°47'0 0.0
2016-Apr-24 10:05N 52°58' E 004°47'0 0.0
2016-Apr-24 02:32N 52°58' E 004°47'0 0.0
2016-Apr-23 12:17N 52°58' E 004°47'2 2.1
2016-Apr-23 11:32N 52°58' E 004°45'2 1.7
2016-Apr-23 10:32N 52°58' E 004°47'1 1.3
2016-Apr-23 09:31N 52°59' E 004°48'2 1.5
2016-Apr-23 08:30N 52°58' E 004°46'1 1.1
2016-Apr-23 07:31N 52°58' E 004°44'2 1.8
2016-Apr-23 06:32N 52°59' E 004°46'1 1.1
2016-Apr-23 05:33N 52°58' E 004°45'2 1.8
2016-Apr-23 04:33N 52°57' E 004°42'3 2.8
2016-Apr-23 03:30N 52°58' E 004°47'5 5.4
2016-Apr-23 02:33N 52°55' E 004°40'4 4.0
2016-Apr-23 01:34N 52°53' E 004°34'8 7.2
2016-Apr-23 00:30N 53°01' E 004°30'39 7.4
2016-Apr-22 19:17N 53°35' E 005°00'6 8.6
2016-Apr-22 18:33N 53°37' E 005°10'9 8.8
2016-Apr-22 17:34N 53°40' E 005°24'10 9.6
2016-Apr-22 16:34N 53°43' E 005°39'1110.8
2016-Apr-22 15:32N 53°46' E 005°57'1211.1
2016-Apr-22 14:28N 53°50' E 006°16'1011.0
2016-Apr-22 13:33N 53°53' E 006°33'1010.6
2016-Apr-22 12:34N 53°55' E 006°50'10 9.9
2016-Apr-22 11:34N 53°57' E 007°06'1010.0
2016-Apr-22 10:33N 53°59' E 007°23'10 9.5
2016-Apr-22 09:33N 54°01' E 007°39'10 9.8
2016-Apr-22 08:34N 54°01' E 007°55'9 8.6
2016-Apr-22 07:33N 54°01' E 008°10'9 9.2
2016-Apr-22 06:33N 53°59' E 008°26'1212.3
2016-Apr-22 05:33N 53°53' E 008°43'1313.0
2016-Apr-22 04:33N 53°53' E 009°05'4 4.5
2016-Apr-22 03:33N 53°55' E 009°11'8 8.4
2016-Apr-22 02:33N 54°03' E 009°18'27 7.8
2016-Apr-21 23:04N 54°22' E 009°51'4 8.4
2016-Apr-21 22:33N 54°21' E 009°58'6 6.3
2016-Apr-21 21:33N 54°22' E 010°09'3 2.9
2016-Apr-21 20:33N 54°24' E 010°12'1110.4
2016-Apr-21 19:32N 54°35' E 010°13'29 0.6
2016-Apr-19 19:07N 55°01' E 010°31'5 7.3
2016-Apr-19 18:28N 55°03' E 010°39'6 6.2
2016-Apr-19 17:33N 55°05' E 010°48'18 7.5
2016-Apr-19 15:10N 55°17' E 011°11'5 8.9
2016-Apr-19 14:33N 55°12' E 011°15'10 9.9
2016-Apr-19 13:33N 55°04' E 011°24'1010.4
2016-Apr-19 12:33N 55°01' E 011°42'5 0.7
2016-Apr-19 05:32N 54°59' E 011°50'8 8.1
2016-Apr-19 04:33N 55°01' E 011°37'1010.2
2016-Apr-19 03:34N 55°05' E 011°20'  
Track history (hours):
 
Tides and Currents Weather Stations Pressure Air Temp Water Temp Dewpoint Dewpoint Depression Visibility Wind Speed Wind Dir Waves Ship Positions

Van Kinsbergen

Last reported at 2016-Apr-29 03:23 UTC. Time now 2016-Apr-29 13:57 UTC.
Position N 52°58' E 004°47'.

Length 40 m; draft 3.1 m.

MMSI: 244736000.

Date/timePositionNaut miles runAvg speedWind from/ knotsBaromVisibWave heightAir tempDewpointWater temp
2016-Apr-29 03:23N 52°58' E 004°47'0 0.0
2016-Apr-28 20:23N 52°58' E 004°47'0 0.0
2016-Apr-28 08:23N 52°58' E 004°47'0 0.0
2016-Apr-28 06:17N 52°58' E 004°47'0 0.0
2016-Apr-27 05:32N 52°58' E 004°47'0 0.0
2016-Apr-26 20:32N 52°58' E 004°47'0 0.0
2016-Apr-26 08:20N 52°58' E 004°47'0 0.0
2016-Apr-26 06:05N 52°58' E 004°47'0 0.0
2016-Apr-26 04:29N 52°58' E 004°47'0 0.0
2016-Apr-25 23:20N 52°58' E 004°47'0 0.0
2016-Apr-25 20:17N 52°58' E 004°47'0 0.0
2016-Apr-25 08:11N 52°58' E 004°47'0 0.0
2016-Apr-24 17:32N 52°58' E 004°47'0 0.0
2016-Apr-24 14:32N 52°58' E 004°47'0 0.0
2016-Apr-24 10:05N 52°58' E 004°47'0 0.0
2016-Apr-24 02:32N 52°58' E 004°47'0 0.0
2016-Apr-23 12:17N 52°58' E 004°47'2 2.1
2016-Apr-23 11:32N 52°58' E 004°45'2 1.7
2016-Apr-23 10:32N 52°58' E 004°47'1 1.3
2016-Apr-23 09:31N 52°59' E 004°48'2 1.5
2016-Apr-23 08:30N 52°58' E 004°46'1 1.1
2016-Apr-23 07:31N 52°58' E 004°44'2 1.8
2016-Apr-23 06:32N 52°59' E 004°46'1 1.1
2016-Apr-23 05:33N 52°58' E 004°45'2 1.8
2016-Apr-23 04:33N 52°57' E 004°42'3 2.8
2016-Apr-23 03:30N 52°58' E 004°47'5 5.4
2016-Apr-23 02:33N 52°55' E 004°40'4 4.0
2016-Apr-23 01:34N 52°53' E 004°34'8 7.2
2016-Apr-23 00:30N 53°01' E 004°30'39 7.4
2016-Apr-22 19:17N 53°35' E 005°00'6 8.6
2016-Apr-22 18:33N 53°37' E 005°10'9 8.8
2016-Apr-22 17:34N 53°40' E 005°24'10 9.6
2016-Apr-22 16:34N 53°43' E 005°39'1110.8
2016-Apr-22 15:32N 53°46' E 005°57'1211.1
2016-Apr-22 14:28N 53°50' E 006°16'1011.0
2016-Apr-22 13:33N 53°53' E 006°33'1010.6
2016-Apr-22 12:34N 53°55' E 006°50'10 9.9
2016-Apr-22 11:34N 53°57' E 007°06'1010.0
2016-Apr-22 10:33N 53°59' E 007°23'10 9.5
2016-Apr-22 09:33N 54°01' E 007°39'10 9.8
2016-Apr-22 08:34N 54°01' E 007°55'9 8.6
2016-Apr-22 07:33N 54°01' E 008°10'9 9.2
2016-Apr-22 06:33N 53°59' E 008°26'1212.3
2016-Apr-22 05:33N 53°53' E 008°43'1313.0
2016-Apr-22 04:33N 53°53' E 009°05'4 4.5
2016-Apr-22 03:33N 53°55' E 009°11'8 8.4
2016-Apr-22 02:33N 54°03' E 009°18'27 7.8
2016-Apr-21 23:04N 54°22' E 009°51'4 8.4
2016-Apr-21 22:33N 54°21' E 009°58'6 6.3
2016-Apr-21 21:33N 54°22' E 010°09'3 2.9
2016-Apr-21 20:33N 54°24' E 010°12'1110.4
2016-Apr-21 19:32N 54°35' E 010°13'29 0.6
2016-Apr-19 19:07N 55°01' E 010°31'5 7.3
2016-Apr-19 18:28N 55°03' E 010°39'6 6.2
2016-Apr-19 17:33N 55°05' E 010°48'18 7.5
2016-Apr-19 15:10N 55°17' E 011°11'5 8.9
2016-Apr-19 14:33N 55°12' E 011°15'10 9.9
2016-Apr-19 13:33N 55°04' E 011°24'1010.4
2016-Apr-19 12:33N 55°01' E 011°42'5 0.7
2016-Apr-19 05:32N 54°59' E 011°50'8 8.1
2016-Apr-19 04:33N 55°01' E 011°37'1010.2
2016-Apr-19 03:34N 55°05' E 011°20'  

Dump ship's entire track history